Terminal Aerodrome Forecast
Issued by NWS

Home | Current Version | Previous Version | Graphics & Text | Print | Product List | Glossary Off
Versions: 1 2 3 4 5 6 7 8 9 10 11 12 13 14 15 16 17

000
FTUS43 KDDC 201720
TAFHYS
TAF
KHYS 201720Z 2018/2118 18026G36KT P6SM SCT250
     FM210400 18025G33KT P6SM BKN200 WS020/19050KT
     FM211000 18020KT P6SM SCT150
     FM211400 25017KT P6SM BKN070
     FM211500 26017KT P6SM BKN025
     FM211600 33019G29KT P6SM BKN070=

USA.gov is the U.S. government's official web portal to all federal, state and local government web resources and services.